sensor_id;sensor_type;location;lat;lon;timestamp;P1;durP1;ratioP1;P2;durP2;ratioP2
4244;SDS011;2136;48.502;9.194;2023-03-01T00:00:07;28.77;;;16.65;;
4244;SDS011;2136;48.502;9.194;2023-03-01T00:02:35;29.13;;;17.50;;
4244;SDS011;2136;48.502;9.194;2023-03-01T00:05:02;26.60;;;15.68;;
4244;SDS011;2136;48.502;9.194;2023-03-01T00:07:29;27.13;;;16.13;;
4244;SDS011;2136;48.502;9.194;2023-03-01T00:09:57;25.65;;;15.85;;
4244;SDS011;2136;48.502;9.194;2023-03-01T00:12:24;26.77;;;16.23;;
4244;SDS011;2136;48.502;9.194;2023-03-01T00:14:51;27.08;;;17.00;;
4244;SDS011;2136;48.502;9.194;2023-03-01T00:17:17;25.10;;;16.00;;
4244;SDS011;2136;48.502;9.194;2023-03-01T00:19:44;31.20;;;16.23;;
4244;SDS011;2136;48.502;9.194;2023-03-01T00:22:11;23.98;;;15.00;;
4244;SDS011;2136;48.502;9.194;2023-03-01T00:24:38;24.60;;;16.08;;
4244;SDS011;2136;48.502;9.194;2023-03-01T00:27:06;28.25;;;16.40;;
4244;SDS011;2136;48.502;9.194;2023-03-01T00:29:33;28.27;;;16.15;;
4244;SDS011;2136;48.502;9.194;2023-03-01T00:31:59;24.13;;;15.50;;
4244;SDS011;2136;48.502;9.194;2023-03-01T00:34:26;29.80;;;16.30;;
4244;SDS011;2136;48.502;9.194;2023-03-01T00:36:53;32.45;;;16.38;;
4244;SDS011;2136;48.502;9.194;2023-03-01T00:39:20;30.58;;;16.77;;
4244;SDS011;2136;48.502;9.194;2023-03-01T00:41:47;34.83;;;17.73;;
4244;SDS011;2136;48.502;9.194;2023-03-01T00:44:15;27.90;;;17.02;;
4244;SDS011;2136;48.502;9.194;2023-03-01T00:46:42;25.48;;;15.50;;
4244;SDS011;2136;48.502;9.194;2023-03-01T00:49:09;25.20;;;17.13;;
4244;SDS011;2136;48.502;9.194;2023-03-01T00:51:36;26.58;;;15.30;;
4244;SDS011;2136;48.502;9.194;2023-03-01T00:54:04;26.98;;;17.35;;
4244;SDS011;2136;48.502;9.194;2023-03-01T00:56:31;29.42;;;15.65;;
4244;SDS011;2136;48.502;9.194;2023-03-01T00:58:58;24.05;;;15.10;;
4244;SDS011;2136;48.502;9.194;2023-03-01T01:01:27;30.50;;;18.30;;
4244;SDS011;2136;48.502;9.194;2023-03-01T01:03:55;30.27;;;15.93;;
4244;SDS011;2136;48.502;9.194;2023-03-01T01:06:24;27.55;;;16.95;;
4244;SDS011;2136;48.502;9.194;2023-03-01T01:08:53;24.10;;;15.77;;
4244;SDS011;2136;48.502;9.194;2023-03-01T01:11:21;33.08;;;16.90;;
4244;SDS011;2136;48.502;9.194;2023-03-01T01:13:48;27.80;;;16.40;;
4244;SDS011;2136;48.502;9.194;2023-03-01T01:16:16;30.30;;;16.80;;
4244;SDS011;2136;48.502;9.194;2023-03-01T01:18:45;29.05;;;16.98;;
4244;SDS011;2136;48.502;9.194;2023-03-01T01:21:13;24.25;;;16.25;;
4244;SDS011;2136;48.502;9.194;2023-03-01T01:23:42;28.80;;;15.88;;
4244;SDS011;2136;48.502;9.194;2023-03-01T01:26:11;33.05;;;17.67;;
4244;SDS011;2136;48.502;9.194;2023-03-01T01:28:39;27.88;;;15.95;;
4244;SDS011;2136;48.502;9.194;2023-03-01T01:31:06;29.55;;;16.75;;
4244;SDS011;2136;48.502;9.194;2023-03-01T01:33:33;25.70;;;16.38;;
4244;SDS011;2136;48.502;9.194;2023-03-01T01:36:02;28.65;;;16.83;;
4244;SDS011;2136;48.502;9.194;2023-03-01T01:38:29;25.13;;;15.90;;
4244;SDS011;2136;48.502;9.194;2023-03-01T01:40:56;32.45;;;15.57;;
4244;SDS011;2136;48.502;9.194;2023-03-01T01:43:24;24.65;;;15.95;;
4244;SDS011;2136;48.502;9.194;2023-03-01T01:45:53;25.85;;;16.17;;
4244;SDS011;2136;48.502;9.194;2023-03-01T01:48:23;30.67;;;16.83;;
4244;SDS011;2136;48.502;9.194;2023-03-01T01:51:08;30.15;;;17.40;;
4244;SDS011;2136;48.502;9.194;2023-03-01T01:53:39;31.88;;;16.15;;
4244;SDS011;2136;48.502;9.194;2023-03-01T01:56:08;23.08;;;14.50;;
4244;SDS011;2136;48.502;9.194;2023-03-01T01:58:39;22.48;;;13.82;;
4244;SDS011;2136;48.502;9.194;2023-03-01T02:01:08;22.02;;;13.98;;
4244;SDS011;2136;48.502;9.194;2023-03-01T02:03:36;19.85;;;13.80;;
4244;SDS011;2136;48.502;9.194;2023-03-01T02:06:11;22.15;;;14.95;;
4244;SDS011;2136;48.502;9.194;2023-03-01T02:08:42;27.05;;;14.25;;
4244;SDS011;2136;48.502;9.194;2023-03-01T02:11:12;22.40;;;13.88;;
4244;SDS011;2136;48.502;9.194;2023-03-01T02:13:40;25.52;;;15.05;;
4244;SDS011;2136;48.502;9.194;2023-03-01T02:16:08;22.80;;;14.30;;
4244;SDS011;2136;48.502;9.194;2023-03-01T02:18:37;27.50;;;16.17;;
4244;SDS011;2136;48.502;9.194;2023-03-01T02:21:08;24.70;;;13.25;;
4244;SDS011;2136;48.502;9.194;2023-03-01T02:23:46;25.55;;;15.75;;
4244;SDS011;2136;48.502;9.194;2023-03-01T02:26:17;27.77;;;14.07;;
4244;SDS011;2136;48.502;9.194;2023-03-01T02:28:48;26.08;;;15.05;;
4244;SDS011;2136;48.502;9.194;2023-03-01T02:31:15;24.23;;;13.70;;
4244;SDS011;2136;48.502;9.194;2023-03-01T02:34:02;21.63;;;14.05;;
4244;SDS011;2136;48.502;9.194;2023-03-01T02:36:30;23.27;;;14.77;;
4244;SDS011;2136;48.502;9.194;2023-03-01T02:39:01;24.60;;;14.98;;
4244;SDS011;2136;48.502;9.194;2023-03-01T02:41:31;26.95;;;13.88;;
4244;SDS011;2136;48.502;9.194;2023-03-01T02:44:03;21.65;;;13.30;;
4244;SDS011;2136;48.502;9.194;2023-03-01T02:46:30;38.28;;;15.48;;
4244;SDS011;2136;48.502;9.194;2023-03-01T02:48:58;22.35;;;14.85;;
4244;SDS011;2136;48.502;9.194;2023-03-01T02:51:28;25.13;;;14.85;;
4244;SDS011;2136;48.502;9.194;2023-03-01T02:54:07;22.73;;;14.27;;
4244;SDS011;2136;48.502;9.194;2023-03-01T02:56:39;20.63;;;13.55;;
4244;SDS011;2136;48.502;9.194;2023-03-01T02:59:08;21.45;;;12.40;;
4244;SDS011;2136;48.502;9.194;2023-03-01T03:01:36;22.52;;;15.07;;
4244;SDS011;2136;48.502;9.194;2023-03-01T03:04:04;27.35;;;14.73;;
4244;SDS011;2136;48.502;9.194;2023-03-01T03:06:31;28.27;;;15.48;;
4244;SDS011;2136;48.502;9.194;2023-03-01T03:08:58;28.88;;;13.52;;
4244;SDS011;2136;48.502;9.194;2023-03-01T03:11:25;24.27;;;13.30;;
4244;SDS011;2136;48.502;9.194;2023-03-01T03:13:52;22.35;;;13.50;;
4244;SDS011;2136;48.502;9.194;2023-03-01T03:16:21;22.55;;;14.60;;
4244;SDS011;2136;48.502;9.194;2023-03-01T03:18:48;28.70;;;16.00;;
4244;SDS011;2136;48.502;9.194;2023-03-01T03:21:15;21.33;;;13.85;;
4244;SDS011;2136;48.502;9.194;2023-03-01T03:23:42;24.23;;;14.63;;
4244;SDS011;2136;48.502;9.194;2023-03-01T03:26:09;26.58;;;15.50;;
4244;SDS011;2136;48.502;9.194;2023-03-01T03:28:38;24.80;;;13.88;;
4244;SDS011;2136;48.502;9.194;2023-03-01T03:31:05;20.30;;;13.60;;
4244;SDS011;2136;48.502;9.194;2023-03-01T03:33:35;25.73;;;14.27;;
4244;SDS011;2136;48.502;9.194;2023-03-01T03:36:02;21.15;;;13.68;;
4244;SDS011;2136;48.502;9.194;2023-03-01T03:38:29;24.50;;;15.30;;
4244;SDS011;2136;48.502;9.194;2023-03-01T03:41:00;23.17;;;13.93;;
4244;SDS011;2136;48.502;9.194;2023-03-01T03:43:29;24.90;;;14.27;;
4244;SDS011;2136;48.502;9.194;2023-03-01T03:45:57;27.65;;;15.70;;
4244;SDS011;2136;48.502;9.194;2023-03-01T03:48:24;24.13;;;15.60;;
4244;SDS011;2136;48.502;9.194;2023-03-01T03:50:54;21.75;;;12.80;;
4244;SDS011;2136;48.502;9.194;2023-03-01T03:53:22;23.05;;;15.07;;
4244;SDS011;2136;48.502;9.194;2023-03-01T03:55:51;26.85;;;14.85;;
4244;SDS011;2136;48.502;9.194;2023-03-01T03:58:19;31.13;;;15.38;;
4244;SDS011;2136;48.502;9.194;2023-03-01T04:00:49;21.98;;;14.10;;
4244;SDS011;2136;48.502;9.194;2023-03-01T04:03:17;24.50;;;16.17;;
4244;SDS011;2136;48.502;9.194;2023-03-01T04:05:45;25.83;;;15.93;;
4244;SDS011;2136;48.502;9.194;2023-03-01T04:08:13;27.30;;;15.05;;
4244;SDS011;2136;48.502;9.194;2023-03-01T04:10:41;21.27;;;14.25;;
4244;SDS011;2136;48.502;9.194;2023-03-01T04:13:11;24.65;;;15.88;;
4244;SDS011;2136;48.502;9.194;2023-03-01T04:15:39;28.70;;;16.20;;
4244;SDS011;2136;48.502;9.194;2023-03-01T04:18:08;19.25;;;13.75;;
4244;SDS011;2136;48.502;9.194;2023-03-01T04:20:38;27.83;;;16.95;;
4244;SDS011;2136;48.502;9.194;2023-03-01T04:23:05;23.60;;;14.60;;
4244;SDS011;2136;48.502;9.194;2023-03-01T04:25:42;25.85;;;14.63;;
4244;SDS011;2136;48.502;9.194;2023-03-01T04:28:14;23.20;;;15.35;;
4244;SDS011;2136;48.502;9.194;2023-03-01T04:30:41;25.67;;;15.75;;
4244;SDS011;2136;48.502;9.194;2023-03-01T04:33:08;33.38;;;16.13;;
4244;SDS011;2136;48.502;9.194;2023-03-01T04:35:37;30.52;;;18.15;;
4244;SDS011;2136;48.502;9.194;2023-03-01T04:38:05;28.05;;;16.63;;
4244;SDS011;2136;48.502;9.194;2023-03-01T04:40:32;23.45;;;15.20;;
4244;SDS011;2136;48.502;9.194;2023-03-01T04:43:01;21.30;;;14.52;;
4244;SDS011;2136;48.502;9.194;2023-03-01T04:45:29;27.17;;;15.45;;
4244;SDS011;2136;48.502;9.194;2023-03-01T04:47:57;26.95;;;15.13;;
4244;SDS011;2136;48.502;9.194;2023-03-01T04:50:24;28.30;;;16.17;;
4244;SDS011;2136;48.502;9.194;2023-03-01T04:52:51;28.77;;;15.95;;
4244;SDS011;2136;48.502;9.194;2023-03-01T04:55:18;24.35;;;14.77;;
4244;SDS011;2136;48.502;9.194;2023-03-01T04:57:45;21.67;;;15.10;;
4244;SDS011;2136;48.502;9.194;2023-03-01T05:00:15;24.00;;;15.07;;
4244;SDS011;2136;48.502;9.194;2023-03-01T05:02:48;28.55;;;16.48;;
4244;SDS011;2136;48.502;9.194;2023-03-01T05:05:18;22.45;;;15.73;;
4244;SDS011;2136;48.502;9.194;2023-03-01T05:07:50;30.65;;;16.40;;
4244;SDS011;2136;48.502;9.194;2023-03-01T05:10:18;23.00;;;14.98;;
4244;SDS011;2136;48.502;9.194;2023-03-01T05:12:45;24.25;;;15.80;;
4244;SDS011;2136;48.502;9.194;2023-03-01T05:15:12;25.38;;;16.25;;
4244;SDS011;2136;48.502;9.194;2023-03-01T05:17:40;24.23;;;14.73;;
4244;SDS011;2136;48.502;9.194;2023-03-01T05:20:08;30.95;;;16.70;;
4244;SDS011;2136;48.502;9.194;2023-03-01T05:22:36;23.60;;;15.43;;
4244;SDS011;2136;48.502;9.194;2023-03-01T05:25:03;23.17;;;15.52;;
4244;SDS011;2136;48.502;9.194;2023-03-01T05:27:32;25.00;;;16.00;;
4244;SDS011;2136;48.502;9.194;2023-03-01T05:29:59;26.90;;;15.05;;
4244;SDS011;2136;48.502;9.194;2023-03-01T05:32:38;33.55;;;16.85;;
4244;SDS011;2136;48.502;9.194;2023-03-01T05:35:09;23.98;;;14.68;;
4244;SDS011;2136;48.502;9.194;2023-03-01T05:37:38;26.05;;;16.15;;
4244;SDS011;2136;48.502;9.194;2023-03-01T05:40:06;28.42;;;16.00;;
4244;SDS011;2136;48.502;9.194;2023-03-01T05:42:40;24.08;;;15.45;;
4244;SDS011;2136;48.502;9.194;2023-03-01T05:45:08;22.50;;;15.37;;
4244;SDS011;2136;48.502;9.194;2023-03-01T05:47:37;27.70;;;16.67;;
4244;SDS011;2136;48.502;9.194;2023-03-01T05:50:06;29.58;;;16.17;;
4244;SDS011;2136;48.502;9.194;2023-03-01T05:52:33;28.40;;;17.80;;
4244;SDS011;2136;48.502;9.194;2023-03-01T05:55:00;27.67;;;17.07;;
4244;SDS011;2136;48.502;9.194;2023-03-01T05:57:27;25.65;;;16.27;;
4244;SDS011;2136;48.502;9.194;2023-03-01T05:59:54;30.83;;;17.13;;
4244;SDS011;2136;48.502;9.194;2023-03-01T06:02:21;24.15;;;15.10;;
4244;SDS011;2136;48.502;9.194;2023-03-01T06:04:48;22.65;;;14.10;;
4244;SDS011;2136;48.502;9.194;2023-03-01T06:07:16;26.73;;;17.25;;
4244;SDS011;2136;48.502;9.194;2023-03-01T06:09:43;25.08;;;16.27;;
4244;SDS011;2136;48.502;9.194;2023-03-01T06:12:10;29.30;;;15.65;;
4244;SDS011;2136;48.502;9.194;2023-03-01T06:14:37;29.05;;;16.17;;
4244;SDS011;2136;48.502;9.194;2023-03-01T06:17:04;27.27;;;16.48;;
4244;SDS011;2136;48.502;9.194;2023-03-01T06:19:30;29.98;;;16.73;;
4244;SDS011;2136;48.502;9.194;2023-03-01T06:21:57;23.20;;;15.57;;
4244;SDS011;2136;48.502;9.194;2023-03-01T06:24:25;26.73;;;16.67;;
4244;SDS011;2136;48.502;9.194;2023-03-01T06:26:53;27.00;;;16.08;;
4244;SDS011;2136;48.502;9.194;2023-03-01T06:29:20;25.90;;;16.02;;
4244;SDS011;2136;48.502;9.194;2023-03-01T06:31:48;30.92;;;16.98;;
4244;SDS011;2136;48.502;9.194;2023-03-01T06:34:15;32.60;;;16.95;;
4244;SDS011;2136;48.502;9.194;2023-03-01T06:36:42;28.70;;;16.88;;
4244;SDS011;2136;48.502;9.194;2023-03-01T06:39:09;29.60;;;17.03;;
4244;SDS011;2136;48.502;9.194;2023-03-01T06:41:37;31.48;;;18.77;;
4244;SDS011;2136;48.502;9.194;2023-03-01T06:44:04;27.52;;;16.40;;
4244;SDS011;2136;48.502;9.194;2023-03-01T06:46:31;31.67;;;19.42;;
4244;SDS011;2136;48.502;9.194;2023-03-01T06:48:58;30.60;;;18.08;;
4244;SDS011;2136;48.502;9.194;2023-03-01T06:51:25;31.13;;;17.80;;
4244;SDS011;2136;48.502;9.194;2023-03-01T06:53:52;37.63;;;18.33;;
4244;SDS011;2136;48.502;9.194;2023-03-01T06:56:19;24.27;;;16.13;;
4244;SDS011;2136;48.502;9.194;2023-03-01T06:58:47;37.00;;;17.63;;
4244;SDS011;2136;48.502;9.194;2023-03-01T07:01:14;27.52;;;17.77;;
4244;SDS011;2136;48.502;9.194;2023-03-01T07:03:40;28.30;;;17.95;;
4244;SDS011;2136;48.502;9.194;2023-03-01T07:06:09;30.00;;;17.30;;
4244;SDS011;2136;48.502;9.194;2023-03-01T07:08:36;36.33;;;17.27;;
4244;SDS011;2136;48.502;9.194;2023-03-01T07:11:02;30.80;;;17.05;;
4244;SDS011;2136;48.502;9.194;2023-03-01T07:13:30;29.98;;;16.17;;
4244;SDS011;2136;48.502;9.194;2023-03-01T07:15:59;40.03;;;19.98;;
4244;SDS011;2136;48.502;9.194;2023-03-01T07:18:26;27.70;;;17.60;;
4244;SDS011;2136;48.502;9.194;2023-03-01T07:20:52;27.40;;;16.17;;
4244;SDS011;2136;48.502;9.194;2023-03-01T07:23:19;32.08;;;17.20;;
4244;SDS011;2136;48.502;9.194;2023-03-01T07:25:50;28.65;;;17.15;;
4244;SDS011;2136;48.502;9.194;2023-03-01T07:28:18;26.83;;;16.57;;
4244;SDS011;2136;48.502;9.194;2023-03-01T07:30:45;27.45;;;16.80;;
4244;SDS011;2136;48.502;9.194;2023-03-01T07:33:14;24.75;;;16.13;;
4244;SDS011;2136;48.502;9.194;2023-03-01T07:35:40;26.48;;;17.92;;
4244;SDS011;2136;48.502;9.194;2023-03-01T07:38:07;27.83;;;15.55;;
4244;SDS011;2136;48.502;9.194;2023-03-01T07:40:34;32.95;;;17.48;;
4244;SDS011;2136;48.502;9.194;2023-03-01T07:43:01;27.70;;;16.48;;
4244;SDS011;2136;48.502;9.194;2023-03-01T07:45:28;29.10;;;16.73;;
4244;SDS011;2136;48.502;9.194;2023-03-01T07:47:55;32.33;;;16.90;;
4244;SDS011;2136;48.502;9.194;2023-03-01T07:50:24;31.70;;;16.47;;
4244;SDS011;2136;48.502;9.194;2023-03-01T07:52:50;29.35;;;17.80;;
4244;SDS011;2136;48.502;9.194;2023-03-01T07:55:17;36.60;;;18.47;;
4244;SDS011;2136;48.502;9.194;2023-03-01T07:57:45;28.33;;;17.27;;
4244;SDS011;2136;48.502;9.194;2023-03-01T08:00:12;25.60;;;16.30;;
4244;SDS011;2136;48.502;9.194;2023-03-01T08:02:39;27.13;;;16.17;;
4244;SDS011;2136;48.502;9.194;2023-03-01T08:05:07;27.83;;;16.70;;
4244;SDS011;2136;48.502;9.194;2023-03-01T08:07:36;24.40;;;15.30;;
4244;SDS011;2136;48.502;9.194;2023-03-01T08:10:03;29.60;;;16.80;;
4244;SDS011;2136;48.502;9.194;2023-03-01T08:12:30;32.50;;;17.17;;
4244;SDS011;2136;48.502;9.194;2023-03-01T08:14:57;27.03;;;17.07;;
4244;SDS011;2136;48.502;9.194;2023-03-01T08:17:24;26.80;;;16.40;;
4244;SDS011;2136;48.502;9.194;2023-03-01T08:19:51;26.30;;;16.53;;
4244;SDS011;2136;48.502;9.194;2023-03-01T08:22:18;28.00;;;16.47;;
4244;SDS011;2136;48.502;9.194;2023-03-01T08:24:46;25.00;;;15.67;;
4244;SDS011;2136;48.502;9.194;2023-03-01T08:27:14;26.17;;;16.80;;
4244;SDS011;2136;48.502;9.194;2023-03-01T08:29:41;32.90;;;16.57;;
4244;SDS011;2136;48.502;9.194;2023-03-01T08:32:08;28.17;;;15.73;;
4244;SDS011;2136;48.502;9.194;2023-03-01T08:34:35;24.93;;;15.43;;
4244;SDS011;2136;48.502;9.194;2023-03-01T08:37:02;26.20;;;15.43;;
4244;SDS011;2136;48.502;9.194;2023-03-01T08:39:29;24.90;;;15.33;;
4244;SDS011;2136;48.502;9.194;2023-03-01T08:41:57;27.43;;;17.00;;
4244;SDS011;2136;48.502;9.194;2023-03-01T08:44:24;25.20;;;16.10;;
4244;SDS011;2136;48.502;9.194;2023-03-01T08:46:51;23.17;;;16.60;;
4244;SDS011;2136;48.502;9.194;2023-03-01T08:49:20;22.50;;;14.90;;
4244;SDS011;2136;48.502;9.194;2023-03-01T08:51:48;26.17;;;17.53;;
4244;SDS011;2136;48.502;9.194;2023-03-01T08:54:16;23.90;;;15.53;;
4244;SDS011;2136;48.502;9.194;2023-03-01T08:56:45;25.57;;;14.80;;
4244;SDS011;2136;48.502;9.194;2023-03-01T08:59:13;24.40;;;15.30;;
4244;SDS011;2136;48.502;9.194;2023-03-01T09:01:42;27.40;;;14.77;;
4244;SDS011;2136;48.502;9.194;2023-03-01T09:04:09;21.80;;;14.77;;
4244;SDS011;2136;48.502;9.194;2023-03-01T09:06:36;28.73;;;17.33;;
4244;SDS011;2136;48.502;9.194;2023-03-01T09:09:04;20.10;;;15.63;;
4244;SDS011;2136;48.502;9.194;2023-03-01T09:11:32;26.60;;;14.90;;
4244;SDS011;2136;48.502;9.194;2023-03-01T09:13:59;21.57;;;14.70;;
4244;SDS011;2136;48.502;9.194;2023-03-01T09:16:27;23.97;;;15.90;;
4244;SDS011;2136;48.502;9.194;2023-03-01T09:18:58;20.47;;;15.40;;
4244;SDS011;2136;48.502;9.194;2023-03-01T09:21:25;25.23;;;15.70;;
4244;SDS011;2136;48.502;9.194;2023-03-01T09:23:52;24.10;;;15.87;;
4244;SDS011;2136;48.502;9.194;2023-03-01T09:26:20;22.40;;;15.03;;
4244;SDS011;2136;48.502;9.194;2023-03-01T09:28:48;27.63;;;15.93;;
4244;SDS011;2136;48.502;9.194;2023-03-01T09:31:16;27.37;;;16.90;;
4244;SDS011;2136;48.502;9.194;2023-03-01T09:33:46;18.70;;;15.60;;
4244;SDS011;2136;48.502;9.194;2023-03-01T09:36:15;19.40;;;15.77;;
4244;SDS011;2136;48.502;9.194;2023-03-01T09:38:43;17.50;;;14.30;;
4244;SDS011;2136;48.502;9.194;2023-03-01T09:41:14;19.57;;;15.77;;
4244;SDS011;2136;48.502;9.194;2023-03-01T09:43:58;20.00;;;15.00;;
4244;SDS011;2136;48.502;9.194;2023-03-01T09:46:29;17.40;;;14.50;;
4244;SDS011;2136;48.502;9.194;2023-03-01T09:49:04;18.77;;;15.60;;
4244;SDS011;2136;48.502;9.194;2023-03-01T09:51:38;19.50;;;15.57;;
4244;SDS011;2136;48.502;9.194;2023-03-01T09:54:05;20.13;;;15.33;;
4244;SDS011;2136;48.502;9.194;2023-03-01T09:56:34;20.93;;;16.40;;
4244;SDS011;2136;48.502;9.194;2023-03-01T09:59:08;20.27;;;15.40;;
4244;SDS011;2136;48.502;9.194;2023-03-01T10:01:43;20.00;;;14.60;;
4244;SDS011;2136;48.502;9.194;2023-03-01T10:07:12;21.20;;;15.80;;
4244;SDS011;2136;48.502;9.194;2023-03-01T10:09:46;19.17;;;15.30;;
4244;SDS011;2136;48.502;9.194;2023-03-01T10:12:15;16.40;;;14.30;;
4244;SDS011;2136;48.502;9.194;2023-03-01T10:14:46;20.40;;;16.03;;
4244;SDS011;2136;48.502;9.194;2023-03-01T10:17:24;19.63;;;15.33;;
4244;SDS011;2136;48.502;9.194;2023-03-01T10:19:58;19.83;;;14.93;;
4244;SDS011;2136;48.502;9.194;2023-03-01T10:22:49;18.93;;;14.70;;
4244;SDS011;2136;48.502;9.194;2023-03-01T10:25:20;19.13;;;15.17;;
4244;SDS011;2136;48.502;9.194;2023-03-01T10:27:59;18.50;;;14.37;;
4244;SDS011;2136;48.502;9.194;2023-03-01T10:30:33;16.70;;;14.90;;
4244;SDS011;2136;48.502;9.194;2023-03-01T10:33:03;17.40;;;14.60;;
4244;SDS011;2136;48.502;9.194;2023-03-01T10:35:41;18.53;;;14.83;;
4244;SDS011;2136;48.502;9.194;2023-03-01T10:38:08;15.43;;;13.70;;
4244;SDS011;2136;48.502;9.194;2023-03-01T10:40:48;15.13;;;13.53;;
4244;SDS011;2136;48.502;9.194;2023-03-01T10:43:17;17.70;;;13.60;;
4244;SDS011;2136;48.502;9.194;2023-03-01T10:45:44;15.73;;;14.03;;
4244;SDS011;2136;48.502;9.194;2023-03-01T10:48:13;16.87;;;12.90;;
4244;SDS011;2136;48.502;9.194;2023-03-01T10:50:43;16.03;;;14.27;;
4244;SDS011;2136;48.502;9.194;2023-03-01T10:53:24;17.73;;;13.80;;
4244;SDS011;2136;48.502;9.194;2023-03-01T10:55:57;16.53;;;13.53;;
4244;SDS011;2136;48.502;9.194;2023-03-01T10:58:26;16.87;;;13.47;;
4244;SDS011;2136;48.502;9.194;2023-03-01T11:00:54;19.40;;;14.10;;
4244;SDS011;2136;48.502;9.194;2023-03-01T11:03:23;16.57;;;12.87;;
4244;SDS011;2136;48.502;9.194;2023-03-01T11:05:54;14.73;;;12.43;;
4244;SDS011;2136;48.502;9.194;2023-03-01T11:08:29;16.83;;;13.90;;
4244;SDS011;2136;48.502;9.194;2023-03-01T11:11:05;14.23;;;12.63;;
4244;SDS011;2136;48.502;9.194;2023-03-01T11:13:39;15.30;;;12.77;;
4244;SDS011;2136;48.502;9.194;2023-03-01T11:16:22;15.03;;;12.70;;
4244;SDS011;2136;48.502;9.194;2023-03-01T11:18:56;19.23;;;14.13;;
4244;SDS011;2136;48.502;9.194;2023-03-01T11:21:25;14.97;;;12.90;;
4244;SDS011;2136;48.502;9.194;2023-03-01T11:23:55;14.63;;;13.17;;
4244;SDS011;2136;48.502;9.194;2023-03-01T11:26:25;15.03;;;12.97;;
4244;SDS011;2136;48.502;9.194;2023-03-01T11:28:55;16.50;;;13.37;;
4244;SDS011;2136;48.502;9.194;2023-03-01T11:31:26;16.00;;;13.10;;
4244;SDS011;2136;48.502;9.194;2023-03-01T11:33:55;14.37;;;12.87;;
4244;SDS011;2136;48.502;9.194;2023-03-01T11:36:28;15.90;;;14.20;;
4244;SDS011;2136;48.502;9.194;2023-03-01T11:39:01;17.03;;;13.53;;
4244;SDS011;2136;48.502;9.194;2023-03-01T11:41:39;15.70;;;14.00;;
4244;SDS011;2136;48.502;9.194;2023-03-01T11:44:10;16.93;;;13.40;;
4244;SDS011;2136;48.502;9.194;2023-03-01T11:46:49;13.90;;;12.20;;
4244;SDS011;2136;48.502;9.194;2023-03-01T11:49:32;15.73;;;12.57;;
4244;SDS011;2136;48.502;9.194;2023-03-01T11:52:19;14.77;;;13.23;;
4244;SDS011;2136;48.502;9.194;2023-03-01T11:54:57;20.17;;;15.23;;
4244;SDS011;2136;48.502;9.194;2023-03-01T11:57:37;14.73;;;13.30;;
4244;SDS011;2136;48.502;9.194;2023-03-01T12:00:21;15.37;;;13.77;;
4244;SDS011;2136;48.502;9.194;2023-03-01T12:05:51;17.30;;;13.93;;
4244;SDS011;2136;48.502;9.194;2023-03-01T12:08:31;16.33;;;13.00;;
4244;SDS011;2136;48.502;9.194;2023-03-01T12:11:06;14.87;;;13.20;;
4244;SDS011;2136;48.502;9.194;2023-03-01T12:13:56;19.07;;;13.10;;
4244;SDS011;2136;48.502;9.194;2023-03-01T12:16:40;15.67;;;12.63;;
4244;SDS011;2136;48.502;9.194;2023-03-01T12:19:33;17.53;;;12.73;;
4244;SDS011;2136;48.502;9.194;2023-03-01T12:22:29;17.50;;;14.23;;
4244;SDS011;2136;48.502;9.194;2023-03-01T12:28:16;15.07;;;12.83;;
4244;SDS011;2136;48.502;9.194;2023-03-01T12:33:57;18.60;;;12.90;;
4244;SDS011;2136;48.502;9.194;2023-03-01T12:36:32;20.90;;;13.07;;
4244;SDS011;2136;48.502;9.194;2023-03-01T12:39:22;18.23;;;12.83;;
4244;SDS011;2136;48.502;9.194;2023-03-01T12:42:01;19.60;;;13.27;;
4244;SDS011;2136;48.502;9.194;2023-03-01T12:44:40;20.10;;;13.30;;
4244;SDS011;2136;48.502;9.194;2023-03-01T12:47:26;20.03;;;12.43;;
4244;SDS011;2136;48.502;9.194;2023-03-01T12:50:18;21.50;;;14.00;;
4244;SDS011;2136;48.502;9.194;2023-03-01T12:52:48;19.03;;;13.30;;
4244;SDS011;2136;48.502;9.194;2023-03-01T12:55:19;19.13;;;12.93;;
4244;SDS011;2136;48.502;9.194;2023-03-01T12:57:55;19.30;;;14.20;;
4244;SDS011;2136;48.502;9.194;2023-03-01T13:00:30;18.47;;;12.70;;
4244;SDS011;2136;48.502;9.194;2023-03-01T13:03:05;18.67;;;12.20;;
4244;SDS011;2136;48.502;9.194;2023-03-01T13:05:42;18.10;;;12.80;;
4244;SDS011;2136;48.502;9.194;2023-03-01T13:08:19;23.80;;;12.67;;
4244;SDS011;2136;48.502;9.194;2023-03-01T13:10:54;18.53;;;13.43;;
4244;SDS011;2136;48.502;9.194;2023-03-01T13:13:26;20.00;;;13.03;;
4244;SDS011;2136;48.502;9.194;2023-03-01T13:15:55;18.17;;;12.93;;
4244;SDS011;2136;48.502;9.194;2023-03-01T13:18:30;20.67;;;13.07;;
4244;SDS011;2136;48.502;9.194;2023-03-01T13:20:58;22.87;;;12.60;;
4244;SDS011;2136;48.502;9.194;2023-03-01T13:23:28;19.80;;;12.17;;
4244;SDS011;2136;48.502;9.194;2023-03-01T13:26:09;21.13;;;13.17;;
4244;SDS011;2136;48.502;9.194;2023-03-01T13:28:51;17.70;;;12.17;;
4244;SDS011;2136;48.502;9.194;2023-03-01T13:37:26;24.50;;;15.17;;
4244;SDS011;2136;48.502;9.194;2023-03-01T13:39:59;25.70;;;16.40;;
4244;SDS011;2136;48.502;9.194;2023-03-01T13:42:47;25.80;;;16.67;;
4244;SDS011;2136;48.502;9.194;2023-03-01T13:45:24;22.67;;;15.37;;
4244;SDS011;2136;48.502;9.194;2023-03-01T13:48:01;18.00;;;12.17;;
4244;SDS011;2136;48.502;9.194;2023-03-01T13:50:36;19.97;;;13.83;;
4244;SDS011;2136;48.502;9.194;2023-03-01T13:53:10;19.17;;;12.87;;
4244;SDS011;2136;48.502;9.194;2023-03-01T13:55:42;18.33;;;13.50;;
4244;SDS011;2136;48.502;9.194;2023-03-01T13:58:15;21.40;;;13.43;;
4244;SDS011;2136;48.502;9.194;2023-03-01T14:00:47;25.83;;;14.53;;
4244;SDS011;2136;48.502;9.194;2023-03-01T14:03:20;19.90;;;13.30;;
4244;SDS011;2136;48.502;9.194;2023-03-01T14:05:57;18.60;;;13.17;;
4244;SDS011;2136;48.502;9.194;2023-03-01T14:08:26;18.47;;;13.70;;
4244;SDS011;2136;48.502;9.194;2023-03-01T14:10:59;22.03;;;14.67;;
4244;SDS011;2136;48.502;9.194;2023-03-01T14:13:45;18.73;;;13.73;;
4244;SDS011;2136;48.502;9.194;2023-03-01T14:16:24;17.93;;;12.00;;
4244;SDS011;2136;48.502;9.194;2023-03-01T14:19:04;16.87;;;13.30;;
4244;SDS011;2136;48.502;9.194;2023-03-01T14:21:41;21.27;;;13.60;;
4244;SDS011;2136;48.502;9.194;2023-03-01T14:24:14;19.87;;;13.53;;
4244;SDS011;2136;48.502;9.194;2023-03-01T14:26:43;19.50;;;13.50;;
4244;SDS011;2136;48.502;9.194;2023-03-01T14:29:23;19.00;;;14.50;;
4244;SDS011;2136;48.502;9.194;2023-03-01T14:31:51;17.30;;;12.77;;
4244;SDS011;2136;48.502;9.194;2023-03-01T14:34:19;19.30;;;13.17;;
4244;SDS011;2136;48.502;9.194;2023-03-01T14:36:47;17.50;;;13.93;;
4244;SDS011;2136;48.502;9.194;2023-03-01T14:39:17;18.93;;;13.73;;
4244;SDS011;2136;48.502;9.194;2023-03-01T14:41:46;20.50;;;14.60;;
4244;SDS011;2136;48.502;9.194;2023-03-01T14:44:15;22.27;;;13.70;;
4244;SDS011;2136;48.502;9.194;2023-03-01T14:46:51;18.95;;;13.70;;
4244;SDS011;2136;48.502;9.194;2023-03-01T14:49:23;20.10;;;13.93;;
4244;SDS011;2136;48.502;9.194;2023-03-01T14:51:53;18.70;;;13.93;;
4244;SDS011;2136;48.502;9.194;2023-03-01T14:54:23;20.87;;;14.50;;
4244;SDS011;2136;48.502;9.194;2023-03-01T14:56:54;17.30;;;12.83;;
4244;SDS011;2136;48.502;9.194;2023-03-01T14:59:25;17.63;;;12.83;;
4244;SDS011;2136;48.502;9.194;2023-03-01T15:01:54;26.70;;;13.50;;
4244;SDS011;2136;48.502;9.194;2023-03-01T15:04:23;19.57;;;12.90;;
4244;SDS011;2136;48.502;9.194;2023-03-01T15:06:52;20.00;;;14.27;;
4244;SDS011;2136;48.502;9.194;2023-03-01T15:09:20;22.80;;;14.10;;
4244;SDS011;2136;48.502;9.194;2023-03-01T15:11:48;26.33;;;12.87;;
4244;SDS011;2136;48.502;9.194;2023-03-01T15:14:28;19.43;;;12.53;;
4244;SDS011;2136;48.502;9.194;2023-03-01T15:17:13;15.93;;;11.43;;
4244;SDS011;2136;48.502;9.194;2023-03-01T15:19:52;22.50;;;12.53;;
4244;SDS011;2136;48.502;9.194;2023-03-01T15:22:19;21.20;;;13.70;;
4244;SDS011;2136;48.502;9.194;2023-03-01T15:24:48;18.60;;;13.53;;